Time;durP1;ratioP1;P1;durP2;ratioP2;P2;SDS_P1;SDS_P2;PMS_P1;PMS_P2;Temp;Humidity;BMP_temperature;BMP_pressure;BME280_temperature;BME280_humidity;BME280_pressure;Samples;Min_cycle;Max_cycle;Signal;HPM_P1;HPM_P2
2022/07/31 00:00:10;;;;;;;5.53;3.20;;;21.50;96.20;;;19.36;92.13;100734.66;5030053;28;20096;-95
2022/07/31 00:02:39;;;;;;;7.53;3.75;;;21.50;96.70;;;19.33;92.64;100729.63;5030238;28;20053;-95
2022/07/31 00:05:12;;;;;;;8.00;3.38;;;21.40;96.70;;;19.31;92.61;100729.88;5039041;28;20037;-95
2022/07/31 00:07:43;;;;;;;5.70;3.45;;;21.40;96.90;;;19.31;93.22;100726.28;5013765;28;20807;-95
2022/07/31 00:10:13;;;;;;;4.73;3.20;;;21.40;97.10;;;19.28;92.90;100727.56;5017506;28;20048;-96
2022/07/31 00:12:43;;;;;;;6.45;3.35;;;21.40;97.00;;;19.29;92.46;100722.91;5017903;28;20042;-96
2022/07/31 00:15:12;;;;;;;6.53;3.38;;;21.30;96.70;;;19.28;91.64;100727.56;5010186;28;20060;-95
2022/07/31 00:17:40;;;;;;;7.82;2.97;;;21.40;96.40;;;19.29;91.99;100722.91;5028142;28;20048;-95
2022/07/31 00:20:15;;;;;;;6.10;3.08;;;21.40;96.30;;;19.22;91.69;100724.94;5026046;28;20136;-94
2022/07/31 00:22:46;;;;;;;8.55;3.22;;;21.40;96.20;;;19.18;91.46;100729.25;5011681;28;20501;-95
2022/07/31 00:25:15;;;;;;;5.70;3.07;;;21.30;96.10;;;19.11;91.69;100721.91;5024321;28;20050;-95
2022/07/31 00:27:45;;;;;;;5.88;3.10;;;21.30;95.90;;;19.02;91.46;100717.81;5029551;28;20300;-94
2022/07/31 00:30:15;;;;;;;7.47;3.35;;;21.30;95.70;;;18.94;91.85;100716.22;5020095;28;20052;-95
2022/07/31 00:32:43;;;;;;;6.28;3.22;;;21.30;95.70;;;18.89;92.17;100718.00;5016123;28;20060;-94
2022/07/31 00:35:13;;;;;;;5.68;3.05;;;21.20;95.70;;;18.82;91.67;100717.25;5027418;28;20045;-95
2022/07/31 00:37:46;;;;;;;6.93;3.00;;;21.20;95.50;;;18.77;91.73;100715.16;5032671;28;20052;-94
2022/07/31 00:40:17;;;;;;;6.97;3.08;;;21.20;95.40;;;18.71;92.06;100716.94;5035927;28;20072;-94
2022/07/31 00:42:45;;;;;;;6.35;2.92;;;21.20;95.40;;;18.67;92.30;100712.97;5031930;28;20042;-95
2022/07/31 00:45:13;;;;;;;6.75;3.42;;;21.10;95.50;;;18.62;92.33;100707.34;5020710;28;20049;-94
2022/07/31 00:47:40;;;;;;;9.77;3.40;;;21.10;95.60;;;18.59;92.45;100718.81;5011456;28;20041;-95
2022/07/31 00:50:13;;;;;;;5.07;3.05;;;21.10;95.70;;;18.56;93.43;100713.75;5015183;28;20092;-95
2022/07/31 00:52:43;;;;;;;6.75;3.22;;;21.10;95.90;;;18.50;94.29;100703.66;5020453;28;20033;-95
2022/07/31 00:55:10;;;;;;;5.35;3.25;;;21.10;96.30;;;18.44;94.41;100702.69;5043547;28;20102;-95
2022/07/31 00:57:38;;;;;;;5.63;3.15;;;21.00;96.40;;;18.39;94.76;100693.44;5015203;28;20942;-95
2022/07/31 01:00:07;;;;;;;6.50;3.40;;;21.00;96.50;;;18.35;95.20;100693.91;5012377;28;20065;-95
2022/07/31 01:02:37;;;;;;;6.15;3.20;;;21.00;96.60;;;18.32;95.04;100694.34;4999943;28;20065;-95
2022/07/31 01:05:08;;;;;;;7.38;3.90;;;20.90;96.70;;;18.27;95.76;100693.38;5015907;28;20095;-95
2022/07/31 01:07:37;;;;;;;5.78;3.40;;;20.90;96.80;;;18.24;95.98;100689.19;5013116;28;20049;-96
2022/07/31 01:10:09;;;;;;;7.32;4.13;;;20.90;97.00;;;18.18;96.47;100690.06;5012577;28;20046;-95
2022/07/31 01:12:44;;;;;;;7.40;3.88;;;20.90;97.40;;;18.13;96.70;100688.03;5031181;28;20049;-96
2022/07/31 01:15:15;;;;;;;6.32;4.32;;;20.80;97.20;;;18.11;96.78;100692.09;5031984;28;20052;-95
2022/07/31 01:17:46;;;;;;;7.05;4.07;;;20.80;97.30;;;18.06;96.75;100686.41;5023680;28;20056;-96
2022/07/31 01:20:14;;;;;;;9.52;4.20;;;20.80;97.20;;;18.04;97.20;100694.06;5010191;28;20049;-94
2022/07/31 01:23:42;;;;;;;12.75;9.20;;;20.80;97.40;;;17.98;97.80;100682.06;5016188;28;20050;-94
2022/07/31 01:26:43;;;;;;;16.77;10.98;;;20.70;97.40;;;17.96;98.20;100696.06;5014406;28;20060;-95
2022/07/31 01:29:22;;;;;;;19.02;11.15;;;20.70;97.80;;;17.96;98.57;100700.72;4995653;28;20502;-96
2022/07/31 01:31:58;;;;;;;18.73;12.35;;;20.60;98.10;;;17.92;98.78;100683.00;4996583;28;20068;-95
2022/07/31 01:34:35;;;;;;;16.98;12.27;;;20.60;98.20;;;17.92;98.63;100685.75;5028904;28;20052;-95
2022/07/31 01:37:14;;;;;;;21.38;12.40;;;20.60;98.20;;;17.88;99.05;100674.34;5031154;28;20156;-96
2022/07/31 01:39:50;;;;;;;18.00;12.73;;;20.60;98.40;;;17.86;99.03;100676.47;5019939;28;20049;-95
2022/07/31 01:42:20;;;;;;;16.02;11.70;;;20.50;98.50;;;17.85;99.51;100680.28;5028028;28;20409;-96
2022/07/31 01:45:02;;;;;;;16.70;11.82;;;20.50;98.80;;;17.85;100.00;100680.28;5043677;28;20098;-93
2022/07/31 01:47:31;;;;;;;14.23;10.50;;;20.50;98.90;;;17.82;100.00;100674.38;4999076;28;20046;-95
2022/07/31 01:50:01;;;;;;;14.70;8.95;;;20.50;99.20;;;17.83;100.00;100681.56;5034835;28;20513;-96
2022/07/31 01:52:32;;;;;;;12.57;8.40;;;20.50;99.50;;;17.84;100.00;100674.97;5002179;28;20100;-96
2022/07/31 01:55:02;;;;;;;10.68;7.65;;;20.50;99.50;;;17.81;100.00;100673.53;5031790;28;20088;-95
2022/07/31 01:57:32;;;;;;;11.10;7.60;;;20.50;99.60;;;17.80;100.00;100677.38;4998896;28;20046;-95
2022/07/31 02:00:09;;;;;;;12.65;7.18;;;20.40;99.90;;;17.79;100.00;100673.75;4994826;28;20062;-95
2022/07/31 02:02:47;;;;;;;11.60;6.10;;;20.40;99.90;;;17.82;100.00;100675.22;5021556;28;20037;-94
2022/07/31 02:05:17;;;;;;;8.80;5.93;;;20.40;99.90;;;17.80;100.00;100671.88;5015499;28;20083;-95
2022/07/31 02:07:46;;;;;;;7.40;5.32;;;20.40;99.90;;;17.78;100.00;100673.97;5009434;28;20516;-95
2022/07/31 02:10:17;;;;;;;7.30;4.88;;;20.40;99.90;;;17.77;100.00;100667.66;5013773;28;20080;-91
2022/07/31 02:12:46;;;;;;;9.07;5.03;;;20.40;99.90;;;17.76;100.00;100665.09;5011273;28;20485;-94
2022/07/31 02:15:17;;;;;;;8.40;4.97;;;20.40;99.90;;;17.75;100.00;100663.44;5018955;28;20053;-96
2022/07/31 02:17:48;;;;;;;8.18;5.55;;;20.40;99.90;;;17.72;100.00;100663.88;5031436;28;20045;-94
2022/07/31 02:20:22;;;;;;;9.38;5.60;;;20.30;99.90;;;17.70;100.00;100664.13;5051090;28;20131;-95
2022/07/31 02:22:53;;;;;;;7.85;5.25;;;20.30;99.90;;;17.70;100.00;100657.78;5009743;28;20041;-94
2022/07/31 02:25:21;;;;;;;5.13;3.88;;;20.30;99.90;;;17.71;100.00;100652.03;5010616;28;20100;-94
2022/07/31 02:27:50;;;;;;;7.65;4.47;;;20.30;99.60;;;17.64;100.00;100654.03;5024742;28;20079;-96
2022/07/31 02:30:19;;;;;;;7.82;4.40;;;20.30;99.50;;;17.59;100.00;100653.84;5030843;28;20072;-95
2022/07/31 02:32:50;;;;;;;6.95;4.38;;;20.30;99.60;;;17.66;100.00;100657.38;5046834;28;20052;-95
2022/07/31 02:35:18;;;;;;;6.95;4.15;;;20.30;99.40;;;17.65;100.00;100660.34;4997248;28;20042;-95
2022/07/31 02:37:50;;;;;;;6.13;3.72;;;20.30;99.30;;;17.58;100.00;100647.53;5012814;28;20414;-94
2022/07/31 02:40:19;;;;;;;7.18;4.05;;;20.30;99.50;;;17.62;100.00;100642.41;5027903;28;20045;-96
2022/07/31 02:42:47;;;;;;;6.10;3.63;;;20.30;99.40;;;17.59;100.00;100646.47;5030249;28;20494;-95
2022/07/31 02:45:16;;;;;;;7.35;3.88;;;20.20;99.20;;;17.58;100.00;100647.53;5033394;28;20049;-95
2022/07/31 02:47:47;;;;;;;6.80;3.70;;;20.30;99.60;;;17.57;100.00;100640.34;5027049;28;20140;-95
2022/07/31 02:50:18;;;;;;;5.10;3.50;;;20.20;99.60;;;17.55;100.00;100628.72;5049175;28;20128;-94
2022/07/31 02:52:46;;;;;;;6.30;3.60;;;20.20;99.60;;;17.56;100.00;100635.06;5033543;28;20041;-94
2022/07/31 02:55:14;;;;;;;7.18;3.78;;;20.20;99.90;;;17.51;100.00;100635.72;5013698;28;20041;-94
2022/07/31 02:57:41;;;;;;;7.00;3.40;;;20.20;99.90;;;17.50;100.00;100628.56;5040993;28;20049;-93
2022/07/31 03:00:22;;;;;;;5.72;3.50;;;20.20;99.90;;;17.51;100.00;100630.22;5006771;28;20037;-94
2022/07/31 03:02:54;;;;;;;10.73;3.72;;;20.20;99.90;;;17.50;100.00;100623.06;5021788;28;20068;-91
2022/07/31 03:05:23;;;;;;;4.40;3.17;;;20.10;99.90;;;17.51;100.00;100624.72;4994144;28;20065;-93
2022/07/31 03:07:50;;;;;;;6.00;3.60;;;20.20;99.90;;;17.51;100.00;100624.72;5027249;28;20075;-92
2022/07/31 03:10:18;;;;;;;5.75;3.75;;;20.10;99.90;;;17.55;100.00;100620.47;5011174;28;20053;-93
2022/07/31 03:13:05;;;;;;;4.72;3.20;;;20.10;99.90;;;17.53;100.00;100627.25;5021263;28;20049;-92
2022/07/31 03:15:33;;;;;;;5.85;3.38;;;20.10;99.90;;;17.50;100.00;100623.06;5017976;28;20143;-93
2022/07/31 03:18:04;;;;;;;5.03;3.53;;;20.10;99.90;;;17.52;100.00;100626.41;5027420;28;20425;-95
2022/07/31 03:20:35;;;;;;;5.90;3.70;;;20.10;99.90;;;17.51;100.00;100623.88;5009387;28;20054;-93
2022/07/31 03:23:03;;;;;;;6.35;3.22;;;20.10;99.90;;;17.53;100.00;100628.09;5022720;28;20033;-94
2022/07/31 03:25:33;;;;;;;5.90;3.20;;;20.10;99.90;;;17.55;100.00;100625.13;5017635;28;20497;-95
2022/07/31 03:28:01;;;;;;;4.80;2.90;;;20.10;99.90;;;17.54;100.00;100623.44;5021248;28;20050;-94
2022/07/31 03:30:28;;;;;;;4.88;3.00;;;20.10;99.90;;;17.56;100.00;100626.81;5018668;28;20048;-93
2022/07/31 03:33:01;;;;;;;6.50;2.95;;;20.10;99.90;;;17.61;100.00;100617.84;5007729;28;20042;-95
2022/07/31 03:35:31;;;;;;;8.07;3.40;;;20.10;99.90;;;17.63;100.00;100626.72;5026321;28;20049;-95
2022/07/31 03:37:58;;;;;;;5.50;3.05;;;20.10;99.90;;;17.70;99.81;100633.00;5028280;28;20049;-96
2022/07/31 03:40:26;;;;;;;4.10;2.88;;;20.10;99.80;;;17.72;99.95;100633.63;5009004;28;20042;-95
2022/07/31 03:42:56;;;;;;;6.70;3.40;;;20.10;99.80;;;17.79;99.54;100626.13;5029442;28;20042;-95
2022/07/31 03:45:24;;;;;;;7.40;3.20;;;20.10;99.80;;;17.85;99.40;100618.88;5029443;28;20041;-95
2022/07/31 03:47:52;;;;;;;8.52;3.15;;;20.20;99.80;;;17.92;98.71;100626.00;5013494;28;20561;-96
2022/07/31 03:50:21;;;;;;;6.30;2.90;;;20.20;99.70;;;17.97;98.20;100617.91;5012299;28;20042;-95
2022/07/31 03:52:51;;;;;;;7.13;3.40;;;20.20;99.50;;;18.02;98.03;100614.44;5008717;28;20037;-95
2022/07/31 03:55:19;;;;;;;6.15;3.47;;;20.20;99.50;;;18.04;97.54;100614.22;4993416;28;20045;-95
2022/07/31 03:57:48;;;;;;;4.20;2.65;;;20.20;99.30;;;18.09;97.39;100615.19;5014357;28;20438;-95
2022/07/31 04:00:18;;;;;;;6.10;2.75;;;20.20;99.30;;;18.13;96.99;100621.09;5014157;28;20041;-94
2022/07/31 04:02:45;;;;;;;5.97;2.92;;;20.30;99.30;;;18.14;95.58;100625.50;5022711;28;20037;-96
2022/07/31 04:05:31;;;;;;;6.47;2.95;;;20.30;98.60;;;18.22;95.23;100625.19;5031910;28;20509;-94
2022/07/31 04:08:00;;;;;;;4.03;2.45;;;20.30;98.40;;;18.30;94.45;100632.31;5016773;28;20143;-95
2022/07/31 04:10:28;;;;;;;4.70;2.65;;;20.30;98.10;;;18.35;94.90;100635.19;5017679;28;20041;-96
2022/07/31 04:12:55;;;;;;;6.70;2.90;;;20.30;98.20;;;18.34;94.92;100628.84;5036291;28;20072;-96
2022/07/31 04:15:26;;;;;;;6.40;3.00;;;20.30;98.30;;;18.39;94.52;100636.41;5025631;28;20453;-95
2022/07/31 04:17:54;;;;;;;5.72;2.70;;;20.40;98.30;;;18.47;93.92;100627.81;5030468;28;20057;-95
2022/07/31 04:20:28;;;;;;;5.90;3.08;;;20.40;98.10;;;18.57;93.89;100632.75;5024455;28;20048;-95
2022/07/31 04:22:56;;;;;;;10.65;2.80;;;20.40;98.40;;;18.59;93.14;100629.78;5032726;28;20510;-95
2022/07/31 04:25:48;;;;;;;6.07;2.63;;;20.40;98.00;;;18.63;91.92;100619.94;5035179;28;20505;-95
2022/07/31 04:28:37;;;;;;;5.55;3.00;;;20.50;97.60;;;18.65;91.43;100618.63;5007913;28;20042;-95
2022/07/31 04:31:04;;;;;;;9.40;3.05;;;20.50;97.40;;;18.74;88.63;100617.22;5013105;28;20493;-95
2022/07/31 04:33:35;;;;;;;6.35;3.03;;;20.50;95.60;;;18.76;89.37;100619.75;5032969;28;20053;-96
2022/07/31 04:36:03;;;;;;;9.02;2.92;;;20.50;96.10;;;18.76;89.18;100631.59;5029967;28;20060;-95
2022/07/31 04:38:31;;;;;;;4.90;2.80;;;20.60;96.10;;;18.75;90.20;100629.94;5018578;28;20049;-96
2022/07/31 04:40:59;;;;;;;5.38;2.65;;;20.60;96.20;;;18.73;90.35;100626.59;5015749;28;20127;-95
2022/07/31 04:43:27;;;;;;;7.55;3.13;;;20.60;96.60;;;18.72;90.04;100632.31;5016156;28;20068;-94
2022/07/31 04:45:55;;;;;;;6.38;2.83;;;20.60;96.70;;;18.77;89.21;100629.69;5008075;28;20042;-92
2022/07/31 04:48:22;;;;;;;7.38;3.00;;;20.60;96.30;;;18.80;89.67;100631.16;5023439;28;20038;-92
2022/07/31 04:50:49;;;;;;;10.10;3.05;;;20.60;96.10;;;18.82;88.91;100621.56;5023879;28;20038;-92
2022/07/31 04:53:17;;;;;;;7.28;3.00;;;20.60;96.00;;;18.84;89.72;100633.22;5022298;28;20636;-93
2022/07/31 04:56:32;;;;;;;7.57;3.15;;;20.70;96.10;;;18.84;89.60;100630.44;5013710;28;20501;-93
2022/07/31 04:58:34;;;;;;;6.13;2.78;;;20.70;96.60;;;18.88;89.38;100628.91;5027618;28;20547;-93
2022/07/31 05:01:02;;;;;;;5.47;2.65;;;20.70;96.40;;;18.93;89.30;100625.44;5009114;28;20046;-92
2022/07/31 05:03:31;;;;;;;6.05;2.95;;;20.70;96.40;;;18.99;88.02;100621.72;5045866;28;20049;-95
2022/07/31 05:06:11;;;;;;;7.68;2.95;;;20.70;95.70;;;19.02;88.60;100629.53;5025281;28;20128;-95
2022/07/31 05:08:46;;;;;;;8.13;3.10;;;20.70;95.80;;;19.07;87.85;100635.16;5019067;28;20048;-90
2022/07/31 05:11:25;;;;;;;6.10;3.08;;;20.70;95.60;;;19.07;87.12;100640.69;5014567;28;20048;-92
2022/07/31 05:13:56;;;;;;;6.18;3.25;;;20.70;95.70;;;19.08;89.81;100634.09;5020131;28;20033;-91
2022/07/31 05:16:25;;;;;;;6.15;3.05;;;20.80;96.50;;;19.16;89.48;100630.16;4994424;28;20050;-90
2022/07/31 05:18:53;;;;;;;6.90;3.40;;;20.80;96.40;;;19.19;89.05;100629.69;4993788;28;20049;-89
2022/07/31 05:21:58;;;;;;;5.47;3.08;;;20.80;96.60;;;19.25;87.40;100634.25;4955167;28;20051;-89
2022/07/31 05:24:51;;;;;;;4.78;3.00;;;20.80;95.80;;;19.25;88.02;100627.88;5029141;28;20144;-91
2022/07/31 05:27:18;;;;;;;8.05;3.33;;;20.90;96.30;;;19.26;87.67;100629.56;5014451;28;20506;-90
2022/07/31 05:29:48;;;;;;;8.85;3.38;;;20.90;96.20;;;19.25;89.47;100636.16;5028212;28;20050;-90
2022/07/31 05:32:16;;;;;;;5.88;3.30;;;20.90;96.60;;;19.25;88.25;100633.41;5013310;28;20049;-89
2022/07/31 05:34:43;;;;;;;6.25;3.50;;;20.90;96.40;;;19.29;88.03;100638.19;5021223;28;20064;-90
2022/07/31 05:37:10;;;;;;;11.10;3.47;;;20.90;96.30;;;19.36;86.84;100637.22;5015561;28;20140;-89
2022/07/31 05:39:40;;;;;;;5.90;3.03;;;20.90;95.80;;;19.37;87.67;100637.00;5029089;28;20823;-90
2022/07/31 05:42:26;;;;;;;9.95;3.60;;;20.90;96.30;;;19.47;87.50;100637.22;5038647;28;20055;-89
2022/07/31 05:45:00;;;;;;;7.40;4.13;;;20.90;96.30;;;19.59;87.10;100644.66;5043856;28;20057;-89
2022/07/31 05:47:29;;;;;;;7.82;3.90;;;21.00;96.30;;;19.65;88.03;100647.31;5013294;28;20460;-91
2022/07/31 05:49:56;;;;;;;6.88;3.55;;;21.00;96.60;;;19.64;87.41;100647.53;5029649;28;20049;-90
2022/07/31 05:52:23;;;;;;;6.68;3.63;;;21.10;96.70;;;19.63;87.96;100648.59;5012914;28;20045;-90
2022/07/31 05:55:13;;;;;;;13.00;4.22;;;21.10;96.80;;;19.67;87.67;100647.91;5006367;28;20057;-90
2022/07/31 05:57:58;;;;;;;7.43;3.78;;;21.10;96.90;;;19.77;87.21;100635.44;5037713;28;20041;-89
2022/07/31 06:00:28;;;;;;;8.80;3.25;;;21.10;96.90;;;19.83;87.82;100638.06;5024652;28;20048;-90
2022/07/31 06:02:56;;;;;;;7.93;4.13;;;21.10;96.90;;;19.96;86.67;100634.19;5022861;28;20136;-91
2022/07/31 06:05:46;;;;;;;7.63;3.92;;;21.20;96.80;;;20.04;87.26;100628.28;5029510;28;20049;-92
2022/07/31 06:08:13;;;;;;;8.98;4.13;;;21.20;97.20;;;20.12;86.25;100635.34;5023638;28;20055;-91
2022/07/31 06:10:44;;;;;;;9.68;4.13;;;21.20;97.10;;;20.20;85.28;100636.88;5003714;28;20137;-92
2022/07/31 06:13:13;;;;;;;9.15;4.15;;;21.20;96.70;;;20.30;84.75;100637.91;5024715;28;20053;-92
2022/07/31 06:15:42;;;;;;;9.95;3.75;;;21.30;96.60;;;20.55;84.74;100636.72;5029693;28;20046;-90
2022/07/31 06:18:13;;;;;;;9.73;4.13;;;21.30;97.00;;;20.86;82.80;100640.91;5020720;28;20111;-91
2022/07/31 06:20:40;;;;;;;7.25;3.33;;;21.40;96.70;;;21.53;80.61;100630.09;5024506;28;20262;-90
2022/07/31 06:23:08;;;;;;;10.20;4.20;;;21.50;96.90;;;22.75;76.07;100624.38;5027090;28;20099;-91
2022/07/31 06:25:37;;;;;;;8.10;3.92;;;21.70;96.50;;;22.91;75.11;100625.34;5011349;28;20060;-90
2022/07/31 06:28:05;;;;;;;7.07;3.80;;;21.80;96.80;;;22.92;73.77;100630.63;5017416;28;20410;-89
2022/07/31 06:30:32;;;;;;;12.18;4.28;;;21.90;95.60;;;23.08;72.54;100616.94;5033902;28;20068;-89
2022/07/31 06:33:01;;;;;;;8.45;4.22;;;22.10;95.20;;;22.82;72.91;100625.00;5010161;28;20500;-91
2022/07/31 06:35:30;;;;;;;6.90;4.00;;;22.30;94.80;;;22.60;75.12;100627.84;5019493;28;20037;-86
2022/07/31 06:38:24;;;;;;;11.48;5.25;;;22.30;94.90;;;22.33;74.85;100627.81;5026808;28;20061;-85
2022/07/31 06:44:20;;;;;;;9.20;4.07;;;22.40;93.90;;;21.65;79.06;100628.06;5028395;28;20191;-86
2022/07/31 06:47:06;;;;;;;10.13;3.80;;;22.30;94.30;;;21.41;79.83;100639.31;5039350;28;20044;-87
2022/07/31 06:49:54;;;;;;;7.60;3.80;;;22.30;94.60;;;21.21;80.89;100627.91;5030238;28;20485;-86
2022/07/31 06:52:25;;;;;;;11.27;4.10;;;22.30;94.50;;;21.06;82.93;100626.59;5023058;28;20034;-86
2022/07/31 06:54:53;;;;;;;8.25;4.00;;;22.20;95.00;;;21.04;83.32;100626.00;5009766;28;20045;-87
2022/07/31 06:57:20;;;;;;;7.88;4.22;;;22.20;95.30;;;21.06;83.34;100626.59;5018696;28;20044;-87
2022/07/31 06:59:47;;;;;;;6.82;4.43;;;22.20;95.50;;;21.18;81.73;100636.75;5015677;28;20084;-87
2022/07/31 07:02:14;;;;;;;8.48;3.60;;;22.20;95.30;;;21.25;81.49;100624.41;5036845;28;20065;-86
2022/07/31 07:04:42;;;;;;;9.10;3.47;;;22.20;95.00;;;21.38;81.52;100633.44;5021522;28;20132;-86
2022/07/31 07:07:11;;;;;;;7.90;4.22;;;22.20;95.40;;;21.34;80.50;100633.09;5011941;28;20100;-86
2022/07/31 07:09:38;;;;;;;5.75;3.25;;;22.20;94.40;;;21.26;80.99;100630.78;5010130;28;20505;-87
2022/07/31 07:12:06;;;;;;;8.32;3.90;;;22.10;95.00;;;21.18;81.85;100622.91;5039899;28;20095;-85
2022/07/31 07:14:33;;;;;;;11.27;3.28;;;22.10;95.30;;;21.08;83.22;100618.88;5019236;28;20099;-87
2022/07/31 07:17:04;;;;;;;6.45;3.20;;;22.10;95.70;;;21.02;82.35;100619.91;5035157;28;20139;-86
2022/07/31 07:19:32;;;;;;;6.93;3.63;;;22.20;95.40;;;20.95;82.56;100621.16;5018074;28;20049;-88
2022/07/31 07:22:00;;;;;;;6.53;3.05;;;22.10;95.20;;;20.86;84.14;100626.25;5023419;28;20041;-88
2022/07/31 07:24:28;;;;;;;7.75;3.08;;;22.00;95.40;;;20.74;84.50;100623.56;5008560;28;20057;-87
2022/07/31 07:27:05;;;;;;;5.78;3.20;;;22.10;95.90;;;20.64;86.84;100624.22;5013283;28;20041;-87
2022/07/31 07:29:33;;;;;;;6.38;2.95;;;22.10;96.60;;;20.59;87.77;100626.84;5022317;28;20135;-87
2022/07/31 07:32:01;;;;;;;8.32;2.92;;;22.10;97.00;;;20.62;88.01;100620.00;5031913;28;20045;-88
2022/07/31 07:34:28;;;;;;;6.65;3.17;;;22.00;97.20;;;20.66;91.59;100624.81;5013993;28;20037;-88
2022/07/31 07:36:55;;;;;;;7.00;2.90;;;22.10;98.80;;;20.71;91.96;100615.75;5024844;28;20041;-87
2022/07/31 07:39:28;;;;;;;7.57;3.10;;;22.00;99.00;;;20.79;91.51;100614.50;5013467;28;20049;-87
2022/07/31 07:41:56;;;;;;;7.07;3.15;;;22.10;99.60;;;20.91;93.16;100617.22;5032833;28;20132;-89
2022/07/31 07:44:23;;;;;;;6.05;3.08;;;22.10;99.90;;;20.97;92.58;100605.97;5018040;28;20114;-89
2022/07/31 07:46:51;;;;;;;6.22;3.10;;;22.10;99.90;;;21.02;92.43;100608.81;5041457;28;20037;-93
2022/07/31 07:49:20;;;;;;;10.73;3.45;;;22.10;99.90;;;21.14;92.27;100599.59;5013226;28;20045;-86
2022/07/31 07:51:50;;;;;;;9.18;2.55;;;22.10;99.90;;;21.21;91.79;100600.22;5013792;28;20049;-91
2022/07/31 07:54:34;;;;;;;6.20;2.70;;;22.10;99.90;;;21.25;88.99;100606.97;5031677;28;20050;-94
2022/07/31 07:57:21;;;;;;;5.55;2.38;;;22.20;99.70;;;21.32;89.08;100596.53;5029266;28;20175;-94
2022/07/31 08:00:27;;;;;;;4.72;2.60;;;22.10;99.60;;;21.42;87.85;100593.94;4984145;28;20060;-96
2022/07/31 08:03:01;;;;;;;5.00;2.70;;;22.20;99.40;;;21.51;87.01;100599.06;5036108;28;20048;-95
2022/07/31 08:05:28;;;;;;;5.80;2.53;;;22.20;99.40;;;21.45;88.90;100604.50;5026259;28;20500;-95
2022/07/31 08:07:56;;;;;;;5.90;2.22;;;22.20;99.80;;;21.44;87.04;100600.09;5041106;28;20042;-88
2022/07/31 08:10:43;;;;;;;7.45;2.33;;;22.20;99.10;;;21.47;87.24;100599.56;5016007;28;20071;-85
2022/07/31 08:13:20;;;;;;;3.92;2.33;;;22.20;99.00;;;21.57;85.67;100598.03;5012526;28;20107;-91
2022/07/31 08:16:06;;;;;;;5.95;2.20;;;22.30;98.60;;;21.48;86.56;100594.88;5026786;28;20462;-93
2022/07/31 08:18:41;;;;;;;4.10;2.00;;;22.30;98.90;;;21.44;86.87;100597.31;5014150;28;20802;-89
2022/07/31 08:21:08;;;;;;;4.97;2.08;;;22.20;98.60;;;21.35;87.34;100590.50;5037848;28;20213;-92
2022/07/31 08:23:35;;;;;;;10.27;2.40;;;22.20;98.80;;;21.31;88.66;100583.81;5044873;28;20029;-92
2022/07/31 08:26:07;;;;;;;3.47;2.03;;;22.30;99.10;;;21.31;88.00;100588.50;5020946;28;20042;-88
2022/07/31 08:28:34;;;;;;;4.85;2.00;;;22.30;98.90;;;21.28;87.84;100590.69;5022780;28;20063;-93
2022/07/31 08:31:02;;;;;;;4.72;2.00;;;22.30;98.90;;;21.33;86.95;100592.69;5034001;28;20576;-92
2022/07/31 08:33:31;;;;;;;4.63;2.05;;;22.30;98.80;;;21.34;88.33;100590.75;5015196;28;20116;-94
2022/07/31 08:35:59;;;;;;;5.43;1.90;;;22.30;99.00;;;21.32;87.90;100602.06;5021074;28;20194;-91
2022/07/31 08:38:27;;;;;;;3.85;2.03;;;22.30;99.30;;;21.30;89.58;100601.47;5017283;28;20422;-90
2022/07/31 08:41:19;;;;;;;4.60;2.00;;;22.30;99.40;;;21.40;87.82;100598.88;5002801;28;20072;-92
2022/07/31 08:43:46;;;;;;;6.88;2.15;;;22.30;99.30;;;21.43;88.34;100603.91;5018359;28;20053;-91
2022/07/31 08:46:14;;;;;;;4.90;2.45;;;22.20;99.90;;;21.46;88.24;100608.97;5023410;28;20045;-93
2022/07/31 08:48:43;;;;;;;5.07;1.83;;;22.30;99.90;;;21.45;88.85;100607.28;5003283;28;20306;-89
2022/07/31 08:51:12;;;;;;;4.32;2.17;;;22.30;99.60;;;21.42;89.37;100606.94;5020996;28;20126;-87
2022/07/31 08:54:00;;;;;;;4.15;2.00;;;22.30;99.90;;;21.43;89.57;100609.44;5051137;28;20056;-94
2022/07/31 08:56:29;;;;;;;5.93;2.42;;;22.30;99.90;;;21.50;90.30;100603.75;5048042;28;20037;-95
2022/07/31 08:58:56;;;;;;;5.53;2.20;;;22.40;99.90;;;21.57;89.11;100600.78;5031436;28;20107;-94
2022/07/31 09:01:24;;;;;;;3.83;2.08;;;22.40;99.90;;;21.66;89.29;100602.03;5024444;28;20046;-93
2022/07/31 09:03:53;;;;;;;6.32;2.55;;;22.40;99.90;;;21.75;89.33;100596.91;5011995;28;20041;-88
2022/07/31 09:06:20;;;;;;;8.57;2.22;;;22.40;99.90;;;21.84;89.21;100587.88;5013789;28;20041;-86
2022/07/31 09:08:47;;;;;;;4.97;2.53;;;22.40;99.90;;;21.92;89.85;100594.06;5030249;28;20136;-86
2022/07/31 09:11:15;;;;;;;6.78;2.20;;;22.50;99.90;;;21.86;88.32;100591.22;5039793;28;20050;-86
2022/07/31 09:13:58;;;;;;;4.80;2.08;;;22.40;99.90;;;21.93;88.29;100585.47;5026908;28;20071;-85
2022/07/31 09:16:46;;;;;;;5.47;1.98;;;22.50;99.90;;;22.08;89.09;100592.31;5031265;28;20119;-86
2022/07/31 09:19:15;;;;;;;4.07;2.00;;;22.50;99.90;;;22.16;88.98;100586.28;5020394;28;20470;-84
2022/07/31 09:21:45;;;;;;;4.40;1.98;;;22.60;99.90;;;22.22;88.39;100582.50;5010991;28;20559;-84
2022/07/31 09:24:25;;;;;;;4.88;2.10;;;22.60;99.90;;;22.29;88.76;100590.63;5017799;28;20045;-81
2022/07/31 09:27:02;;;;;;;3.97;1.80;;;22.60;99.90;;;22.27;87.34;100590.06;5012496;28;20065;-82
2022/07/31 09:29:39;;;;;;;3.65;1.85;;;22.60;99.90;;;22.28;85.90;100591.75;5011564;28;20485;-82
2022/07/31 09:32:13;;;;;;;3.97;2.08;;;22.60;99.90;;;22.30;86.56;100595.09;5023051;28;20060;-82
2022/07/31 09:35:08;;;;;;;5.65;2.10;;;22.60;99.90;;;22.39;85.99;100579.63;5032856;28;20064;-82
2022/07/31 09:37:37;;;;;;;4.63;2.08;;;22.70;99.90;;;22.42;86.12;100582.72;5010083;28;20046;-83
2022/07/31 09:40:35;;;;;;;5.68;1.60;;;22.70;99.90;;;22.49;87.71;100587.25;5024191;28;20060;-79
2022/07/31 09:43:23;;;;;;;5.82;1.85;;;22.70;99.90;;;22.43;87.01;100595.50;5040068;28;20060;-89
2022/07/31 09:45:58;;;;;;;5.30;2.15;;;22.70;99.90;;;22.42;86.27;100587.44;5030172;28;20045;-83
2022/07/31 09:48:27;;;;;;;4.50;2.03;;;22.80;99.90;;;22.45;89.61;100581.38;4993525;28;20053;-80
2022/07/31 09:50:56;;;;;;;3.88;1.80;;;22.80;99.90;;;22.46;86.82;100588.59;5002523;28;20756;-82
2022/07/31 09:53:24;;;;;;;4.18;1.95;;;22.80;99.90;;;22.52;88.14;100581.97;5013069;28;20053;-82
2022/07/31 09:55:59;;;;;;;3.95;1.90;;;22.80;99.90;;;22.53;88.25;100588.38;5026650;28;20046;-81
2022/07/31 09:58:26;;;;;;;6.47;2.05;;;22.80;99.90;;;22.45;85.83;100584.16;5030409;28;20064;-81
2022/07/31 10:00:55;;;;;;;4.95;2.20;;;22.80;99.90;;;22.43;87.35;100580.81;5033356;28;20049;-84
2022/07/31 10:03:25;;;;;;;5.72;2.08;;;22.90;99.90;;;22.46;87.08;100588.59;5020793;28;20060;-82
2022/07/31 10:05:55;;;;;;;5.75;2.30;;;22.80;99.90;;;22.44;86.37;100586.06;5015560;28;20457;-80
2022/07/31 10:08:23;;;;;;;3.83;2.00;;;22.90;99.90;;;22.43;85.65;100589.13;5025794;28;20043;-80
2022/07/31 10:11:29;;;;;;;3.05;1.98;;;22.80;99.90;;;22.43;86.97;100578.88;4963921;28;20047;-79
2022/07/31 10:14:34;;;;;;;5.72;2.20;;;22.90;99.90;;;22.44;86.51;100580.53;5025667;28;20077;-79
2022/07/31 10:17:04;;;;;;;5.68;2.30;;;22.90;99.90;;;22.39;85.72;100574.94;5021524;28;20042;-83
2022/07/31 10:20:01;;;;;;;4.55;2.22;;;22.90;99.90;;;22.42;87.06;100576.34;5025766;28;20045;-81
2022/07/31 10:22:45;;;;;;;3.75;1.70;;;22.90;99.90;;;22.49;87.16;100579.75;5041631;28;20045;-79
2022/07/31 10:25:22;;;;;;;5.32;1.98;;;22.90;99.90;;;22.53;87.02;100567.03;5027885;28;20049;-83
2022/07/31 10:27:50;;;;;;;4.00;1.90;;;23.00;99.90;;;22.64;86.66;100568.78;5012882;28;20056;-83
2022/07/31 10:30:17;;;;;;;4.20;1.88;;;23.00;99.90;;;22.70;85.46;100566.06;5009887;28;20043;-83
2022/07/31 10:32:52;;;;;;;4.18;2.05;;;23.00;99.90;;;22.70;84.88;100571.63;5019584;28;20049;-84
2022/07/31 10:35:29;;;;;;;3.80;1.90;;;23.00;99.90;;;22.75;85.66;100563.31;5026464;28;20056;-84